createdAt,value
2022-11-17T00:00:51.899Z,2.35
2022-11-17T00:01:54.676Z,3.17
2022-11-17T00:02:57.455Z,2.78
2022-11-17T00:04:00.129Z,3.03
2022-11-17T00:05:03.058Z,2.62
2022-11-17T00:06:06.628Z,2.40
2022-11-17T00:07:09.873Z,2.65
2022-11-17T00:08:16.509Z,2.95
2022-11-17T00:09:19.150Z,2.75
2022-11-17T00:10:21.737Z,2.60
2022-11-17T00:11:24.302Z,2.25
2022-11-17T00:12:45.648Z,2.47
2022-11-17T00:14:07.177Z,2.85
2022-11-17T00:15:09.847Z,2.35
2022-11-17T00:16:16.685Z,3.17
2022-11-17T00:17:19.492Z,2.37
2022-11-17T00:18:41.012Z,2.33
2022-11-17T00:20:05.429Z,2.65
2022-11-17T00:21:19.646Z,2.53
2022-11-17T00:22:22.797Z,2.83
2022-11-17T00:23:25.916Z,2.65
2022-11-17T00:24:33.668Z,2.53
2022-11-17T00:25:36.283Z,2.92
2022-11-17T00:26:58.811Z,3.30
2022-11-17T00:28:01.795Z,2.60
2022-11-17T00:29:06.033Z,3.03
2022-11-17T00:30:09.182Z,4.37
2022-11-17T00:31:32.012Z,3.55
2022-11-17T00:32:53.344Z,3.10
2022-11-17T00:34:05.337Z,3.75
2022-11-17T00:35:08.330Z,2.62
2022-11-17T00:36:11.176Z,3.37
2022-11-17T00:37:15.107Z,3.33
2022-11-17T00:38:17.816Z,2.95
2022-11-17T00:39:22.601Z,2.90
2022-11-17T00:40:25.234Z,3.12
2022-11-17T00:41:29.053Z,2.80
2022-11-17T00:42:31.812Z,2.97
2022-11-17T00:43:34.657Z,2.90
2022-11-17T00:44:37.492Z,3.12
2022-11-17T00:45:40.238Z,3.08
2022-11-17T00:46:43.281Z,2.40
2022-11-17T00:47:45.876Z,4.05
2022-11-17T00:48:48.719Z,3.00
2022-11-17T00:49:51.401Z,3.22
2022-11-17T00:50:54.195Z,3.05
2022-11-17T00:51:57.887Z,2.78
2022-11-17T00:53:00.465Z,2.92
2022-11-17T00:54:04.689Z,2.97
2022-11-17T00:55:07.692Z,2.67
2022-11-17T00:56:10.504Z,4.03
2022-11-17T00:57:13.096Z,2.95
2022-11-17T00:58:15.892Z,3.30
2022-11-17T00:59:18.648Z,2.90
2022-11-17T01:00:21.497Z,3.05
2022-11-17T01:01:24.932Z,3.67
2022-11-17T01:02:27.831Z,3.03
2022-11-17T01:03:30.820Z,3.10
2022-11-17T01:04:33.678Z,2.67
2022-11-17T01:05:36.341Z,2.87
2022-11-17T01:06:40.927Z,3.15
2022-11-17T01:07:43.528Z,2.55
2022-11-17T01:08:46.435Z,2.55
2022-11-17T01:09:49.053Z,2.87
2022-11-17T01:10:51.863Z,2.78
2022-11-17T01:11:54.498Z,2.05
2022-11-17T01:12:57.215Z,3.35
2022-11-17T01:14:01.176Z,2.17
2022-11-17T01:15:07.575Z,3.20
2022-11-17T01:16:13.780Z,2.62
2022-11-17T01:17:16.416Z,2.95
2022-11-17T01:18:18.982Z,2.87
2022-11-17T01:19:23.789Z,3.53
2022-11-17T01:20:26.485Z,2.35
2022-11-17T01:21:30.967Z,3.30
2022-11-17T01:22:33.694Z,3.08
2022-11-17T01:23:40.259Z,2.83
2022-11-17T01:24:42.909Z,2.90
2022-11-17T01:25:45.677Z,2.72
2022-11-17T01:26:49.825Z,2.58
2022-11-17T01:27:52.506Z,2.80
2022-11-17T01:28:55.530Z,2.97
2022-11-17T01:29:58.227Z,2.62
2022-11-17T01:31:02.852Z,2.85
2022-11-17T01:32:05.645Z,2.42
2022-11-17T01:33:08.326Z,1.95
2022-11-17T01:34:11.617Z,2.97
2022-11-17T01:35:14.438Z,2.62
2022-11-17T01:36:21.002Z,2.67
2022-11-17T01:37:24.210Z,2.60
2022-11-17T01:38:27.042Z,2.90
2022-11-17T01:39:34.796Z,2.72
2022-11-17T01:40:37.548Z,3.10
2022-11-17T01:41:40.299Z,2.87
2022-11-17T01:42:42.976Z,2.83
2022-11-17T01:43:50.750Z,3.00
2022-11-17T01:44:57.537Z,2.55
2022-11-17T01:46:01.147Z,3.37
2022-11-17T01:47:08.283Z,2.97
2022-11-17T01:48:14.910Z,3.20
2022-11-17T01:49:25.580Z,2.92
2022-11-17T01:50:36.621Z,3.15
2022-11-17T01:51:44.093Z,3.90
2022-11-17T01:52:50.986Z,3.30
2022-11-17T01:53:53.820Z,2.60
2022-11-17T01:54:59.323Z,3.08
2022-11-17T01:56:06.893Z,3.00
2022-11-17T01:57:18.314Z,3.33
2022-11-17T01:58:30.186Z,2.42
2022-11-17T01:59:42.285Z,2.50
2022-11-17T02:00:45.170Z,3.08
2022-11-17T02:01:58.386Z,2.25
2022-11-17T02:03:01.630Z,3.40
2022-11-17T02:04:04.389Z,2.72
2022-11-17T02:05:22.093Z,3.37
2022-11-17T02:06:33.052Z,2.60
2022-11-17T02:08:43.471Z,3.03
2022-11-17T02:09:46.908Z,2.75
2022-11-17T02:10:52.417Z,2.55
2022-11-17T02:11:59.057Z,3.22
2022-11-17T02:13:02.577Z,2.47
2022-11-17T02:14:05.661Z,2.40
2022-11-17T02:15:08.814Z,3.62
2022-11-17T02:16:13.700Z,3.08
2022-11-17T02:17:21.842Z,3.25
2022-11-17T02:18:24.834Z,2.90
2022-11-17T02:19:34.252Z,3.03
2022-11-17T02:20:55.182Z,3.50
2022-11-17T02:22:19.384Z,2.85
2022-11-17T02:23:40.612Z,2.60
2022-11-17T02:25:01.554Z,2.65
2022-11-17T02:27:51.742Z,2.62
2022-11-17T02:29:19.274Z,2.35
2022-11-17T02:30:23.704Z,2.75
2022-11-17T02:31:45.806Z,3.08
2022-11-17T02:33:08.387Z,2.22
2022-11-17T02:34:28.235Z,2.85
2022-11-17T02:36:04.807Z,2.55
2022-11-17T02:37:37.173Z,3.17
2022-11-17T02:39:07.165Z,2.53
2022-11-17T02:40:18.159Z,2.75
2022-11-17T02:42:05.221Z,2.67
2022-11-17T02:43:34.627Z,2.53
2022-11-17T02:44:52.993Z,2.92
2022-11-17T02:46:07.268Z,2.97
2022-11-17T02:47:24.125Z,2.55
2022-11-17T02:48:40.220Z,2.60
2022-11-17T02:49:51.815Z,2.37
2022-11-17T02:50:55.251Z,2.58
2022-11-17T02:51:59.626Z,2.75
2022-11-17T02:53:04.174Z,3.87
2022-11-17T02:54:08.485Z,2.85
2022-11-17T02:55:11.530Z,3.20
2022-11-17T02:56:14.231Z,2.62
2022-11-17T02:57:37.595Z,2.85
2022-11-17T02:58:41.679Z,2.92
2022-11-17T02:59:49.654Z,3.25
2022-11-17T03:01:16.714Z,2.90
2022-11-17T03:02:39.688Z,2.47
2022-11-17T03:04:28.860Z,2.85
2022-11-17T03:05:44.573Z,2.55
2022-11-17T03:07:11.406Z,2.72
2022-11-17T03:08:48.386Z,2.45
2022-11-17T03:10:13.984Z,2.80
2022-11-17T03:11:22.530Z,2.58
2022-11-17T03:12:36.644Z,2.72
2022-11-17T03:13:48.114Z,2.78
2022-11-17T03:15:24.054Z,2.15
2022-11-17T03:16:46.128Z,2.53
2022-11-17T03:18:01.526Z,2.67
2022-11-17T03:19:18.859Z,2.08
2022-11-17T03:20:35.011Z,2.47
2022-11-17T03:22:06.966Z,2.95
2022-11-17T03:23:18.379Z,1.62
2022-11-17T03:24:28.821Z,2.12
2022-11-17T03:25:35.090Z,2.22
2022-11-17T03:26:42.812Z,2.37
2022-11-17T03:27:49.413Z,1.87
2022-11-17T03:28:54.526Z,1.98
2022-11-17T03:30:03.126Z,3.05
2022-11-17T03:31:09.488Z,2.15
2022-11-17T03:32:15.613Z,2.55
2022-11-17T03:33:21.693Z,2.33
2022-11-17T03:34:27.780Z,1.98
2022-11-17T03:35:34.053Z,2.55
2022-11-17T03:36:41.372Z,1.70
2022-11-17T03:37:49.890Z,2.20
2022-11-17T03:39:01.743Z,2.33
2022-11-17T03:40:14.087Z,2.12
2022-11-17T03:41:19.330Z,3.15
2022-11-17T03:42:29.668Z,2.12
2022-11-17T03:43:32.918Z,1.98
2022-11-17T03:44:40.527Z,2.30
2022-11-17T03:45:48.409Z,3.15
2022-11-17T03:48:29.475Z,3.03
2022-11-17T03:49:47.707Z,2.40
2022-11-17T03:51:24.387Z,2.08
2022-11-17T03:52:29.898Z,1.73
2022-11-17T03:53:34.488Z,2.60
2022-11-17T03:54:38.131Z,2.70
2022-11-17T03:55:54.437Z,3.03
2022-11-17T03:57:18.452Z,1.80
2022-11-17T03:58:25.996Z,3.12
2022-11-17T03:59:43.306Z,2.90
2022-11-17T04:00:51.059Z,1.95
2022-11-17T04:01:54.353Z,2.10
2022-11-17T04:03:00.780Z,3.95
2022-11-17T04:04:03.532Z,3.47
2022-11-17T04:05:06.501Z,2.10
2022-11-17T04:06:09.198Z,2.60
2022-11-17T04:07:12.013Z,2.92
2022-11-17T04:08:14.719Z,3.00
2022-11-17T04:09:22.898Z,3.42
2022-11-17T04:10:27.070Z,2.87
2022-11-17T04:11:48.580Z,2.62
2022-11-17T04:13:10.801Z,2.70
2022-11-17T04:14:32.346Z,2.33
2022-11-17T04:15:54.216Z,1.75
2022-11-17T04:16:57.005Z,3.25
2022-11-17T04:18:00.002Z,2.30
2022-11-17T04:19:02.779Z,3.05
2022-11-17T04:20:05.777Z,2.20
2022-11-17T04:21:08.426Z,2.50
2022-11-17T04:22:11.137Z,2.75
2022-11-17T04:23:15.061Z,3.05
2022-11-17T04:24:18.500Z,3.37
2022-11-17T04:25:41.277Z,3.35
2022-11-17T04:27:02.733Z,2.72
2022-11-17T04:28:24.062Z,2.60
2022-11-17T04:29:26.804Z,3.00
2022-11-17T04:30:29.490Z,2.67
2022-11-17T04:31:32.546Z,3.20
2022-11-17T04:32:35.126Z,2.70
2022-11-17T04:33:39.280Z,2.95
2022-11-17T04:34:42.797Z,2.80
2022-11-17T04:35:50.808Z,3.62
2022-11-17T04:36:54.097Z,3.25
2022-11-17T04:37:56.888Z,2.85
2022-11-17T04:39:00.493Z,2.35
2022-11-17T04:40:03.528Z,3.15
2022-11-17T04:41:27.210Z,2.72
2022-11-17T04:42:29.811Z,2.22
2022-11-17T04:43:32.629Z,3.50
2022-11-17T04:44:35.572Z,2.25
2022-11-17T04:45:38.384Z,2.75
2022-11-17T04:46:42.152Z,3.22
2022-11-17T04:47:44.772Z,2.60
2022-11-17T04:48:48.508Z,3.42
2022-11-17T04:49:51.092Z,2.97
2022-11-17T04:50:57.414Z,2.85
2022-11-17T04:52:00.706Z,2.03
2022-11-17T04:53:03.455Z,3.53
2022-11-17T04:54:08.215Z,2.92
2022-11-17T04:55:10.951Z,3.75
2022-11-17T04:56:13.646Z,2.58
2022-11-17T04:57:17.205Z,2.65
2022-11-17T04:58:20.008Z,3.10
2022-11-17T04:59:23.421Z,3.53
2022-11-17T05:00:26.202Z,2.50
2022-11-17T05:01:29.652Z,3.05
2022-11-17T05:02:32.373Z,2.97
2022-11-17T05:03:35.262Z,2.80
2022-11-17T05:04:56.142Z,2.67
2022-11-17T05:05:58.838Z,2.55
2022-11-17T05:07:01.665Z,2.12
2022-11-17T05:08:04.649Z,2.90
2022-11-17T05:09:15.167Z,2.30
2022-11-17T05:10:37.845Z,2.80
2022-11-17T05:11:59.399Z,2.20
2022-11-17T05:13:20.728Z,2.72
2022-11-17T05:14:24.932Z,2.47
2022-11-17T05:15:46.558Z,2.67
2022-11-17T05:17:09.485Z,2.47
2022-11-17T05:18:13.261Z,3.10
2022-11-17T05:19:20.031Z,2.67
2022-11-17T05:20:22.706Z,3.22
2022-11-17T05:21:25.573Z,2.90
2022-11-17T05:22:46.774Z,3.08
2022-11-17T05:23:55.401Z,2.72
2022-11-17T05:24:58.186Z,2.85
2022-11-17T05:26:00.867Z,3.35
2022-11-17T05:27:04.505Z,2.97
2022-11-17T05:28:07.364Z,2.42
2022-11-17T05:29:11.405Z,2.97
2022-11-17T05:30:14.568Z,2.72
2022-11-17T05:31:17.998Z,2.92
2022-11-17T05:32:20.911Z,3.28
2022-11-17T05:33:23.541Z,3.15
2022-11-17T05:34:26.292Z,2.62
2022-11-17T05:35:28.946Z,2.50
2022-11-17T05:36:32.043Z,2.37
2022-11-17T05:37:34.593Z,3.33
2022-11-17T05:38:37.552Z,3.67
2022-11-17T05:39:40.213Z,2.25
2022-11-17T05:40:44.035Z,3.05
2022-11-17T05:41:46.850Z,2.75
2022-11-17T05:42:53.011Z,2.60
2022-11-17T05:43:59.880Z,2.37
2022-11-17T05:45:02.662Z,2.22
2022-11-17T05:46:05.638Z,2.90
2022-11-17T05:47:08.764Z,3.67
2022-11-17T05:48:12.590Z,2.95
2022-11-17T05:49:15.506Z,2.58
2022-11-17T05:50:19.450Z,3.05
2022-11-17T05:51:24.775Z,2.35
2022-11-17T05:52:27.663Z,2.50
2022-11-17T05:53:31.314Z,2.60
2022-11-17T05:54:34.149Z,2.78
2022-11-17T05:55:36.927Z,2.78
2022-11-17T05:56:53.210Z,2.45
2022-11-17T05:58:00.331Z,2.97
2022-11-17T05:59:28.354Z,1.90
2022-11-17T06:00:32.132Z,2.58
2022-11-17T06:01:39.556Z,2.78
2022-11-17T06:02:54.728Z,3.10
2022-11-17T06:04:05.808Z,3.75
2022-11-17T06:05:09.658Z,2.90
2022-11-17T06:06:13.044Z,2.58
2022-11-17T06:07:18.272Z,3.22
2022-11-17T06:08:21.243Z,2.25
2022-11-17T06:09:24.932Z,2.20
2022-11-17T06:10:28.028Z,2.10
2022-11-17T06:11:31.125Z,3.58
2022-11-17T06:12:34.059Z,2.10
2022-11-17T06:13:37.214Z,2.42
2022-11-17T06:14:40.467Z,2.40
2022-11-17T06:15:43.262Z,2.70
2022-11-17T06:16:48.812Z,2.95
2022-11-17T06:18:04.189Z,3.33
2022-11-17T06:19:13.621Z,3.08
2022-11-17T06:20:29.731Z,2.30
2022-11-17T06:22:04.570Z,2.90
2022-11-17T06:23:01.610Z,3.15
2022-11-17T06:24:07.882Z,2.17
2022-11-17T06:25:11.270Z,2.15
2022-11-17T06:26:15.283Z,1.83
2022-11-17T06:27:18.288Z,3.30
2022-11-17T06:28:22.796Z,2.12
2022-11-17T06:29:26.651Z,2.78
2022-11-17T06:30:30.200Z,2.75
2022-11-17T06:31:33.192Z,2.65
2022-11-17T06:32:39.075Z,2.70
2022-11-17T06:33:42.024Z,2.50
2022-11-17T06:34:53.692Z,2.58
2022-11-17T06:36:01.630Z,3.00
2022-11-17T06:37:04.801Z,2.47
2022-11-17T06:38:07.802Z,2.10
2022-11-17T06:39:10.647Z,3.15
2022-11-17T06:40:13.696Z,2.15
2022-11-17T06:41:16.520Z,2.40
2022-11-17T06:42:19.437Z,2.42
2022-11-17T06:43:22.384Z,3.28
2022-11-17T06:44:25.142Z,3.00
2022-11-17T06:45:28.082Z,2.40
2022-11-17T06:46:38.169Z,2.35
2022-11-17T06:47:41.176Z,3.35
2022-11-17T06:48:44.098Z,2.33
2022-11-17T06:49:46.983Z,3.28
2022-11-17T06:50:49.705Z,2.85
2022-11-17T06:51:52.753Z,2.40
2022-11-17T06:53:04.743Z,3.08
2022-11-17T06:54:09.914Z,2.85
2022-11-17T06:55:12.704Z,2.00
2022-11-17T06:56:17.627Z,2.60
2022-11-17T06:57:21.363Z,2.53
2022-11-17T06:58:25.859Z,2.10
2022-11-17T06:59:28.667Z,2.35
2022-11-17T07:00:31.639Z,2.25
2022-11-17T07:01:34.518Z,3.05
2022-11-17T07:02:37.937Z,2.50
2022-11-17T07:03:45.284Z,2.72
2022-11-17T07:04:47.997Z,2.05
2022-11-17T07:05:52.385Z,1.62
2022-11-17T07:06:55.170Z,1.95
2022-11-17T07:08:04.801Z,2.35
2022-11-17T07:09:07.898Z,2.12
2022-11-17T07:10:10.718Z,1.98
2022-11-17T07:11:16.715Z,1.98
2022-11-17T07:12:19.552Z,2.22
2022-11-17T07:13:24.090Z,2.30
2022-11-17T07:14:26.925Z,2.22
2022-11-17T07:15:30.274Z,2.10
2022-11-17T07:16:33.168Z,2.87
2022-11-17T07:17:36.315Z,1.92
2022-11-17T07:18:43.197Z,2.70
2022-11-17T07:19:46.181Z,2.50
2022-11-17T07:20:48.925Z,2.03
2022-11-17T07:21:51.891Z,2.35
2022-11-17T07:22:59.994Z,2.33
2022-11-17T07:24:03.888Z,2.22
2022-11-17T07:25:06.836Z,1.75
2022-11-17T07:26:09.945Z,1.70
2022-11-17T07:27:12.691Z,2.75
2022-11-17T07:28:15.538Z,3.33
2022-11-17T07:29:18.492Z,2.60
2022-11-17T07:30:21.291Z,1.92
2022-11-17T07:31:24.020Z,2.67
2022-11-17T07:32:26.850Z,2.72
2022-11-17T07:33:29.660Z,2.85
2022-11-17T07:34:32.488Z,1.85
2022-11-17T07:35:38.984Z,2.22
2022-11-17T07:36:41.798Z,2.15
2022-11-17T07:37:44.580Z,2.87
2022-11-17T07:38:47.699Z,1.83
2022-11-17T07:39:50.601Z,2.83
2022-11-17T07:40:57.591Z,2.67
2022-11-17T07:42:01.097Z,2.78
2022-11-17T07:43:03.855Z,3.80
2022-11-17T07:44:06.714Z,2.40
2022-11-17T07:45:10.117Z,2.55
2022-11-17T07:46:14.594Z,2.62
2022-11-17T07:47:17.367Z,2.65
2022-11-17T07:48:20.241Z,2.05
2022-11-17T07:49:24.836Z,2.55
2022-11-17T07:50:28.873Z,2.42
2022-11-17T07:51:31.674Z,2.28
2022-11-17T07:52:40.177Z,2.50
2022-11-17T07:53:44.500Z,3.50
2022-11-17T07:54:47.222Z,2.87
2022-11-17T07:55:49.986Z,3.15
2022-11-17T07:56:53.018Z,2.72
2022-11-17T07:58:00.268Z,2.53
2022-11-17T07:59:03.255Z,3.35
2022-11-17T08:00:06.824Z,3.00
2022-11-17T08:01:17.504Z,2.67
2022-11-17T08:02:20.221Z,2.40
2022-11-17T08:03:23.088Z,2.75
2022-11-17T08:04:25.788Z,2.37
2022-11-17T08:05:30.950Z,3.95
2022-11-17T08:06:34.074Z,2.42
2022-11-17T08:07:37.821Z,3.17
2022-11-17T08:08:40.846Z,2.30
2022-11-17T08:09:43.716Z,2.53
2022-11-17T08:10:46.825Z,1.83
2022-11-17T08:11:49.681Z,2.60
2022-11-17T08:12:56.858Z,2.50
2022-11-17T08:13:59.951Z,2.10
2022-11-17T08:15:04.838Z,3.50
2022-11-17T08:16:08.725Z,2.25
2022-11-17T08:17:11.695Z,2.15
2022-11-17T08:18:14.857Z,2.95
2022-11-17T08:19:17.621Z,2.50
2022-11-17T08:20:21.100Z,1.67
2022-11-17T08:21:24.661Z,2.58
2022-11-17T08:22:27.412Z,2.37
2022-11-17T08:23:30.503Z,2.42
2022-11-17T08:24:33.449Z,2.42
2022-11-17T08:25:36.264Z,2.20
2022-11-17T08:26:39.704Z,3.03
2022-11-17T08:27:42.908Z,2.45
2022-11-17T08:28:45.776Z,2.10
2022-11-17T08:29:48.540Z,2.60
2022-11-17T08:30:51.241Z,2.42
2022-11-17T08:31:53.914Z,2.22
2022-11-17T08:32:56.986Z,2.00
2022-11-17T08:33:59.692Z,2.12
2022-11-17T08:35:04.459Z,2.33
2022-11-17T08:36:07.558Z,2.17
2022-11-17T08:37:10.355Z,2.53
2022-11-17T08:38:15.782Z,2.45
2022-11-17T08:39:18.929Z,2.03
2022-11-17T08:40:22.182Z,2.92
2022-11-17T08:41:26.037Z,2.05
2022-11-17T08:42:28.906Z,2.33
2022-11-17T08:43:32.069Z,2.42
2022-11-17T08:44:36.837Z,2.22
2022-11-17T08:45:42.179Z,2.58
2022-11-17T08:46:44.989Z,2.85
2022-11-17T08:48:57.057Z,1.67
2022-11-17T08:50:01.137Z,2.45
2022-11-17T08:51:08.840Z,2.53
2022-11-17T08:52:11.839Z,1.73
2022-11-17T08:53:16.754Z,2.65
2022-11-17T08:54:19.689Z,1.62
2022-11-17T08:55:22.522Z,2.03
2022-11-17T08:56:25.513Z,2.62
2022-11-17T08:57:33.022Z,2.78
2022-11-17T08:58:45.427Z,1.67
2022-11-17T08:59:52.843Z,2.28
2022-11-17T09:00:58.609Z,1.90
2022-11-17T09:02:04.211Z,1.95
2022-11-17T09:03:09.085Z,1.70
2022-11-17T09:04:12.507Z,2.55
2022-11-17T09:05:15.331Z,1.60
2022-11-17T09:06:18.484Z,1.92
2022-11-17T09:07:21.381Z,2.37
2022-11-17T09:09:47.109Z,2.25
2022-11-17T09:10:52.102Z,1.90
2022-11-17T09:11:54.903Z,1.80
2022-11-17T09:12:58.303Z,2.35
2022-11-17T09:14:01.021Z,2.10
2022-11-17T09:15:05.149Z,1.85
2022-11-17T09:16:11.186Z,1.73
2022-11-17T09:17:14.102Z,2.10
2022-11-17T09:18:17.375Z,1.73
2022-11-17T09:19:20.469Z,1.90
2022-11-17T09:20:24.028Z,2.65
2022-11-17T09:21:27.436Z,2.40
2022-11-17T09:22:30.118Z,2.22
2022-11-17T09:23:33.451Z,2.20
2022-11-17T09:24:36.556Z,2.45
2022-11-17T09:25:40.154Z,2.62
2022-11-17T09:26:43.541Z,2.03
2022-11-17T09:27:50.135Z,2.80
2022-11-17T09:28:53.058Z,2.75
2022-11-17T09:29:55.865Z,2.75
2022-11-17T09:31:00.361Z,2.55
2022-11-17T09:32:04.283Z,2.47
2022-11-17T09:33:07.093Z,1.83
2022-11-17T09:34:09.927Z,2.08
2022-11-17T09:35:12.643Z,2.58
2022-11-17T09:36:16.541Z,3.12
2022-11-17T09:37:20.701Z,2.25
2022-11-17T09:38:23.527Z,2.28
2022-11-17T09:39:26.349Z,2.15
2022-11-17T09:40:36.291Z,2.37
2022-11-17T09:41:47.030Z,2.85
2022-11-17T09:42:49.801Z,1.60
2022-11-17T09:44:24.841Z,2.17
2022-11-17T09:45:42.858Z,2.35
2022-11-17T09:47:03.976Z,3.25
2022-11-17T09:50:02.632Z,1.92
2022-11-17T09:51:11.534Z,2.50
2022-11-17T09:52:33.120Z,1.98
2022-11-17T09:53:57.870Z,1.98
2022-11-17T09:55:04.612Z,2.65
2022-11-17T09:56:11.720Z,2.55
2022-11-17T09:57:42.804Z,2.40
2022-11-17T10:00:02.433Z,2.03
2022-11-17T10:01:06.471Z,2.00
2022-11-17T10:02:11.015Z,1.98
2022-11-17T10:03:26.513Z,2.60
2022-11-17T10:04:30.352Z,1.90
2022-11-17T10:05:35.468Z,1.50
2022-11-17T10:06:38.607Z,1.90
2022-11-17T10:07:48.266Z,1.87
2022-11-17T10:09:12.963Z,2.03
2022-11-17T10:10:25.301Z,2.05
2022-11-17T10:12:45.334Z,1.67
2022-11-17T10:13:49.909Z,1.58
2022-11-17T10:14:55.429Z,1.98
2022-11-17T10:16:03.908Z,2.47
2022-11-17T10:17:06.886Z,2.37
2022-11-17T10:18:14.572Z,2.03
2022-11-17T10:19:20.952Z,2.28
2022-11-17T10:20:23.776Z,2.70
2022-11-17T10:21:30.973Z,1.50
2022-11-17T10:22:36.290Z,1.42
2022-11-17T10:23:46.908Z,1.70
2022-11-17T10:24:55.271Z,1.85
2022-11-17T10:25:59.498Z,1.90
2022-11-17T10:27:05.668Z,1.87
2022-11-17T10:28:23.338Z,2.10
2022-11-17T10:29:26.206Z,1.90
2022-11-17T10:30:29.023Z,2.33
2022-11-17T10:31:44.013Z,2.12
2022-11-17T10:32:55.123Z,1.73
2022-11-17T10:33:58.078Z,1.73
2022-11-17T10:35:24.385Z,1.62
2022-11-17T10:36:30.626Z,1.65
2022-11-17T10:37:33.739Z,2.15
2022-11-17T10:38:36.706Z,1.62
2022-11-17T10:39:41.980Z,1.30
2022-11-17T10:40:44.678Z,1.67
2022-11-17T10:41:50.856Z,2.20
2022-11-17T10:43:24.235Z,1.73
2022-11-17T10:44:30.327Z,1.75
2022-11-17T10:45:34.109Z,2.22
2022-11-17T10:47:01.936Z,2.05
2022-11-17T10:48:20.997Z,1.80
2022-11-17T10:49:34.593Z,1.62
2022-11-17T10:50:37.416Z,1.80
2022-11-17T10:51:40.210Z,1.60
2022-11-17T10:52:43.083Z,1.85
2022-11-17T10:54:15.070Z,1.80
2022-11-17T10:55:19.652Z,1.37
2022-11-17T10:56:22.668Z,1.80
2022-11-17T10:57:28.952Z,2.00
2022-11-17T10:58:35.981Z,1.77
2022-11-17T10:59:57.060Z,2.00
2022-11-17T11:01:04.706Z,1.77
2022-11-17T11:02:40.131Z,1.95
2022-11-17T11:03:49.620Z,1.70
2022-11-17T11:05:10.038Z,1.65
2022-11-17T11:06:31.200Z,1.00
2022-11-17T11:07:34.335Z,1.65
2022-11-17T11:08:50.816Z,2.00
2022-11-17T11:09:56.456Z,1.40
2022-11-17T11:11:00.561Z,1.77
2022-11-17T11:12:05.537Z,1.80
2022-11-17T11:13:32.693Z,2.03
2022-11-17T11:14:44.576Z,2.17
2022-11-17T11:15:48.354Z,1.50
2022-11-17T11:16:52.028Z,1.98
2022-11-17T11:17:54.853Z,1.70
2022-11-17T11:18:58.119Z,1.40
2022-11-17T11:20:01.045Z,2.00
2022-11-17T11:21:17.759Z,1.70
2022-11-17T11:22:29.599Z,1.00
2022-11-17T11:24:13.975Z,1.83
2022-11-17T11:25:47.613Z,1.20
2022-11-17T11:26:56.871Z,1.25
2022-11-17T11:28:40.080Z,1.23
2022-11-17T11:30:00.771Z,1.75
2022-11-17T11:31:32.604Z,1.62
2022-11-17T11:32:41.492Z,1.90
2022-11-17T11:34:45.110Z,1.30
2022-11-17T11:36:16.162Z,1.45
2022-11-17T11:38:55.488Z,1.65
2022-11-17T11:40:15.842Z,1.55
2022-11-17T11:41:27.718Z,1.65
2022-11-17T11:43:06.557Z,1.40
2022-11-17T11:44:24.626Z,1.50
2022-11-17T11:45:37.181Z,1.10
2022-11-17T11:46:57.281Z,1.77
2022-11-17T11:48:15.265Z,2.00
2022-11-17T11:49:31.500Z,1.60
2022-11-17T11:50:55.682Z,1.48
2022-11-17T11:51:58.699Z,1.48
2022-11-17T11:53:17.230Z,1.55
2022-11-17T11:54:50.598Z,1.48
2022-11-17T11:56:12.422Z,1.92
2022-11-17T11:57:18.834Z,1.33
2022-11-17T11:58:22.934Z,1.95
2022-11-17T11:59:43.084Z,1.77
2022-11-17T12:00:48.197Z,1.77
2022-11-17T12:01:56.727Z,1.60
2022-11-17T12:03:13.570Z,1.23
2022-11-17T12:04:37.885Z,1.83
2022-11-17T12:05:59.060Z,2.08
2022-11-17T12:07:24.445Z,1.87
2022-11-17T12:08:55.965Z,1.60
2022-11-17T12:10:31.512Z,1.90
2022-11-17T12:11:53.977Z,1.23
2022-11-17T12:12:58.192Z,1.50
2022-11-17T12:14:04.720Z,1.65
2022-11-17T12:15:10.386Z,1.37
2022-11-17T12:16:27.787Z,1.20
2022-11-17T12:17:30.672Z,1.12
2022-11-17T12:18:33.669Z,1.62
2022-11-17T12:19:51.061Z,1.60
2022-11-17T12:20:55.550Z,1.85
2022-11-17T12:21:58.560Z,1.70
2022-11-17T12:23:38.668Z,1.85
2022-11-17T12:24:42.158Z,1.45
2022-11-17T12:25:53.303Z,1.45
2022-11-17T12:27:34.729Z,1.65
2022-11-17T12:28:40.449Z,1.55
2022-11-17T12:29:47.432Z,1.48
2022-11-17T12:30:55.409Z,1.35
2022-11-17T12:32:00.564Z,1.60
2022-11-17T12:33:05.796Z,1.25
2022-11-17T12:34:08.493Z,1.87
2022-11-17T12:35:30.193Z,1.85
2022-11-17T12:36:34.614Z,1.48
2022-11-17T12:37:37.337Z,1.50
2022-11-17T12:38:40.867Z,1.67
2022-11-17T12:40:20.570Z,1.73
2022-11-17T12:41:48.431Z,1.35
2022-11-17T12:43:15.828Z,1.15
2022-11-17T12:44:37.616Z,1.23
2022-11-17T12:45:55.773Z,1.42
2022-11-17T12:47:11.963Z,1.62
2022-11-17T12:48:32.753Z,1.77
2022-11-17T12:49:59.837Z,1.65
2022-11-17T12:51:11.843Z,1.25
2022-11-17T12:52:22.597Z,1.50
2022-11-17T12:55:00.872Z,1.12
2022-11-17T12:56:10.139Z,1.30
2022-11-17T12:57:26.667Z,1.60
2022-11-17T12:58:51.320Z,1.58
2022-11-17T13:00:02.840Z,1.33
2022-11-17T13:01:31.523Z,1.40
2022-11-17T13:02:58.949Z,1.37
2022-11-17T13:04:12.990Z,1.37
2022-11-17T13:05:25.092Z,1.40
2022-11-17T13:06:35.457Z,1.52
2022-11-17T13:07:43.156Z,1.45
2022-11-17T13:09:07.568Z,1.85
2022-11-17T13:10:27.954Z,1.90
2022-11-17T13:11:30.789Z,1.85
2022-11-17T13:12:38.270Z,1.75
2022-11-17T13:13:46.901Z,1.65
2022-11-17T13:15:02.953Z,2.03
2022-11-17T13:16:06.081Z,1.80
2022-11-17T13:17:12.490Z,2.53
2022-11-17T13:18:41.973Z,1.77
2022-11-17T13:19:46.003Z,2.22
2022-11-17T13:20:49.706Z,2.08
2022-11-17T13:22:06.365Z,1.65
2022-11-17T13:23:32.734Z,1.73
2022-11-17T13:24:38.365Z,2.12
2022-11-17T13:25:41.069Z,1.75
2022-11-17T13:26:43.879Z,2.25
2022-11-17T13:27:56.094Z,1.75
2022-11-17T13:29:24.588Z,1.77
2022-11-17T13:30:29.318Z,2.17
2022-11-17T13:31:32.532Z,1.60
2022-11-17T13:32:40.139Z,1.83
2022-11-17T13:33:44.961Z,1.92
2022-11-17T13:34:50.424Z,2.35
2022-11-17T13:36:10.590Z,1.87
2022-11-17T13:37:22.574Z,1.58
2022-11-17T13:38:25.780Z,1.85
2022-11-17T13:39:28.997Z,2.33
2022-11-17T13:40:34.213Z,2.00
2022-11-17T13:41:40.398Z,1.60
2022-11-17T13:42:43.591Z,2.00
2022-11-17T13:43:47.392Z,1.60
2022-11-17T13:44:50.629Z,2.17
2022-11-17T13:45:54.796Z,1.70
2022-11-17T13:46:57.661Z,1.50
2022-11-17T13:48:00.534Z,1.80
2022-11-17T13:49:35.238Z,1.40
2022-11-17T13:50:38.430Z,1.50
2022-11-17T13:51:43.876Z,1.40
2022-11-17T13:52:47.445Z,1.35
2022-11-17T13:53:50.221Z,2.10
2022-11-17T13:54:53.301Z,2.35
2022-11-17T13:55:56.258Z,1.80
2022-11-17T13:57:07.922Z,1.42
2022-11-17T13:58:35.449Z,2.10
2022-11-17T13:59:39.381Z,1.60
2022-11-17T14:00:51.471Z,1.87
2022-11-17T14:02:23.334Z,1.60
2022-11-17T14:03:32.882Z,1.77
2022-11-17T14:04:35.647Z,1.87
2022-11-17T14:05:38.410Z,1.37
2022-11-17T14:06:59.317Z,1.98
2022-11-17T14:08:27.687Z,2.15
2022-11-17T14:09:32.384Z,1.77
2022-11-17T14:10:38.675Z,2.08
2022-11-17T14:11:42.252Z,2.25
2022-11-17T14:12:45.017Z,2.15
2022-11-17T14:13:51.087Z,1.67
2022-11-17T14:14:53.772Z,1.50
2022-11-17T14:15:59.428Z,2.15
2022-11-17T14:17:19.653Z,2.15
2022-11-17T14:18:32.167Z,1.70
2022-11-17T14:19:38.162Z,1.92
2022-11-17T14:20:40.939Z,1.50
2022-11-17T14:22:08.239Z,1.42
2022-11-17T14:23:11.018Z,1.40
2022-11-17T14:24:23.395Z,1.30
2022-11-17T14:25:26.560Z,1.52
2022-11-17T14:26:29.632Z,1.35
2022-11-17T14:27:32.524Z,1.52
2022-11-17T14:28:35.443Z,1.73
2022-11-17T14:29:38.674Z,1.58
2022-11-17T14:30:41.499Z,1.33
2022-11-17T14:31:44.400Z,1.17
2022-11-17T14:32:47.112Z,1.90
2022-11-17T14:33:50.736Z,1.55
2022-11-17T14:34:53.560Z,1.52
2022-11-17T14:35:59.515Z,1.70
2022-11-17T14:37:04.649Z,1.60
2022-11-17T14:38:16.749Z,1.75
2022-11-17T14:39:20.099Z,2.05
2022-11-17T14:40:23.010Z,2.03
2022-11-17T14:41:25.802Z,1.85
2022-11-17T14:42:34.615Z,1.75
2022-11-17T14:43:39.258Z,1.62
2022-11-17T14:44:45.980Z,1.95
2022-11-17T14:45:50.546Z,1.48
2022-11-17T14:46:53.306Z,1.20
2022-11-17T14:47:56.066Z,1.62
2022-11-17T14:48:58.920Z,1.37
2022-11-17T14:50:02.155Z,1.33
2022-11-17T14:51:05.088Z,1.10
2022-11-17T14:52:07.746Z,1.40
2022-11-17T14:53:14.006Z,1.35
2022-11-17T14:54:17.054Z,1.20
2022-11-17T14:55:22.399Z,1.40
2022-11-17T14:56:25.293Z,1.35
2022-11-17T14:57:28.000Z,1.40
2022-11-17T14:58:30.742Z,2.12
2022-11-17T14:59:33.586Z,2.10
2022-11-17T15:00:36.377Z,1.50
2022-11-17T15:01:39.111Z,1.10
2022-11-17T15:02:41.974Z,1.65
2022-11-17T15:03:45.334Z,1.73
2022-11-17T15:04:50.993Z,1.50
2022-11-17T15:05:54.627Z,1.25
2022-11-17T15:06:57.394Z,1.42
2022-11-17T15:08:00.352Z,1.40
2022-11-17T15:09:06.117Z,1.58
2022-11-17T15:10:10.325Z,1.52
2022-11-17T15:11:16.330Z,1.48
2022-11-17T15:12:19.374Z,1.73
2022-11-17T15:13:22.518Z,1.02
2022-11-17T15:14:25.546Z,1.55
2022-11-17T15:15:28.737Z,1.90
2022-11-17T15:16:32.501Z,1.83
2022-11-17T15:17:35.210Z,1.40
2022-11-17T15:18:38.518Z,1.10
2022-11-17T15:19:41.833Z,1.20
2022-11-17T15:20:44.697Z,1.30
2022-11-17T15:21:47.555Z,1.58
2022-11-17T15:22:50.494Z,2.00